createdAt,value
2023-05-12T00:01:40.902Z,10.50
2023-05-12T00:04:09.041Z,10.60
2023-05-12T00:06:36.823Z,10.60
2023-05-12T00:09:04.430Z,10.70
2023-05-12T00:11:31.828Z,10.70
2023-05-12T00:13:59.290Z,10.80
2023-05-12T00:16:26.875Z,10.80
2023-05-12T00:18:54.404Z,10.60
2023-05-12T00:21:21.631Z,10.70
2023-05-12T00:23:48.903Z,10.70
2023-05-12T00:26:17.796Z,10.60
2023-05-12T00:28:45.398Z,10.50
2023-05-12T00:31:12.868Z,10.40
2023-05-12T00:33:40.395Z,10.50
2023-05-12T00:36:08.300Z,10.50
2023-05-12T00:38:37.573Z,10.70
2023-05-12T00:41:04.984Z,10.60
2023-05-12T00:43:32.242Z,10.70
2023-05-12T00:46:00.240Z,10.60
2023-05-12T00:48:27.821Z,10.60
2023-05-12T00:50:55.876Z,10.70
2023-05-12T00:53:23.348Z,10.70
2023-05-12T00:55:51.087Z,10.70
2023-05-12T00:58:18.265Z,10.80
2023-05-12T01:00:45.819Z,10.70
2023-05-12T01:03:13.270Z,10.60
2023-05-12T01:05:48.021Z,10.60
2023-05-12T01:08:15.509Z,10.70
2023-05-12T01:10:46.240Z,10.70
2023-05-12T01:13:13.645Z,10.80
2023-05-12T01:15:43.289Z,10.80
2023-05-12T01:18:13.949Z,10.70
2023-05-12T01:20:42.701Z,10.60
2023-05-12T01:23:10.527Z,10.50
2023-05-12T01:25:37.929Z,10.50
2023-05-12T01:28:05.356Z,10.60
2023-05-12T01:30:32.941Z,10.60
2023-05-12T01:33:00.452Z,10.50
2023-05-12T01:35:27.708Z,10.50
2023-05-12T01:37:55.270Z,10.40
2023-05-12T01:40:22.898Z,10.50
2023-05-12T01:42:50.378Z,10.60
2023-05-12T01:45:17.800Z,10.60
2023-05-12T01:47:45.199Z,10.60
2023-05-12T01:50:12.597Z,10.50
2023-05-12T01:52:39.818Z,10.60
2023-05-12T01:55:07.637Z,10.40
2023-05-12T01:57:35.341Z,10.50
2023-05-12T02:00:02.458Z,10.40
2023-05-12T02:02:31.900Z,10.40
2023-05-12T02:04:59.312Z,10.20
2023-05-12T02:07:26.428Z,10.30
2023-05-12T02:09:53.822Z,10.30
2023-05-12T02:12:21.027Z,10.20
2023-05-12T02:14:48.197Z,10.20
2023-05-12T02:17:15.276Z,10.40
2023-05-12T02:19:42.434Z,10.20
2023-05-12T02:22:09.902Z,10.40
2023-05-12T02:24:37.263Z,10.40
2023-05-12T02:27:04.796Z,10.40
2023-05-12T02:29:32.568Z,10.40
2023-05-12T02:32:00.018Z,10.30
2023-05-12T02:34:27.417Z,10.50
2023-05-12T02:36:54.758Z,10.60
2023-05-12T02:39:22.153Z,10.60
2023-05-12T02:41:49.914Z,10.50
2023-05-12T02:44:18.213Z,10.40
2023-05-12T02:46:45.660Z,10.40
2023-05-12T02:49:12.947Z,10.50
2023-05-12T02:51:40.328Z,10.40
2023-05-12T02:54:07.502Z,10.50
2023-05-12T02:56:34.912Z,10.50
2023-05-12T02:59:02.466Z,10.50
2023-05-12T03:01:29.936Z,10.60
2023-05-12T03:03:57.462Z,10.50
2023-05-12T03:06:24.725Z,10.50
2023-05-12T03:08:52.063Z,10.50
2023-05-12T03:11:19.161Z,10.50
2023-05-12T03:13:46.871Z,10.50
2023-05-12T03:16:14.186Z,10.60
2023-05-12T03:18:41.419Z,10.60
2023-05-12T03:21:09.222Z,10.60
2023-05-12T03:23:37.189Z,10.50
2023-05-12T03:26:04.548Z,9.90
2023-05-12T03:28:32.707Z,10.40
2023-05-12T03:31:00.175Z,10.40
2023-05-12T03:33:27.704Z,10.40
2023-05-12T03:35:54.987Z,10.30
2023-05-12T03:38:23.431Z,10.30
2023-05-12T03:40:53.820Z,10.40
2023-05-12T03:43:21.606Z,10.40
2023-05-12T03:45:48.950Z,10.40
2023-05-12T03:48:17.683Z,10.40
2023-05-12T03:50:45.177Z,10.40
2023-05-12T03:53:12.497Z,10.30
2023-05-12T03:55:39.873Z,10.30
2023-05-12T03:58:07.741Z,10.40
2023-05-12T04:00:35.192Z,10.40
2023-05-12T04:03:02.771Z,10.30
2023-05-12T04:05:30.478Z,10.30
2023-05-12T04:07:57.641Z,10.30
2023-05-12T04:10:25.267Z,10.30
2023-05-12T04:12:53.149Z,10.30
2023-05-12T04:15:21.903Z,10.30
2023-05-12T04:17:50.179Z,10.40
2023-05-12T04:20:17.514Z,10.40
2023-05-12T04:22:45.069Z,10.40
2023-05-12T04:25:12.597Z,10.40
2023-05-12T04:27:40.029Z,10.50
2023-05-12T04:30:08.133Z,10.50
2023-05-12T04:32:35.592Z,10.30
2023-05-12T04:35:03.040Z,10.40
2023-05-12T04:37:30.440Z,10.40
2023-05-12T04:39:57.820Z,10.40
2023-05-12T04:42:26.930Z,10.50
2023-05-12T04:44:54.305Z,10.40
2023-05-12T04:47:21.799Z,10.50
2023-05-12T04:49:49.232Z,10.50
2023-05-12T04:52:16.556Z,10.50
2023-05-12T04:54:44.082Z,10.60
2023-05-12T04:57:11.741Z,10.50
2023-05-12T04:59:41.153Z,10.50
2023-05-12T05:02:09.475Z,10.60
2023-05-12T05:04:37.135Z,10.60
2023-05-12T05:07:04.722Z,10.60
2023-05-12T05:09:33.349Z,10.60
2023-05-12T05:12:01.772Z,10.70
2023-05-12T05:14:29.353Z,10.60
2023-05-12T05:16:56.823Z,10.70
2023-05-12T05:19:35.293Z,10.70
2023-05-12T05:22:11.117Z,10.80
2023-05-12T05:24:38.472Z,10.90
2023-05-12T05:27:05.962Z,10.90
2023-05-12T05:29:33.405Z,11.00
2023-05-12T05:32:01.025Z,10.80
2023-05-12T05:34:28.468Z,10.90
2023-05-12T05:36:55.997Z,11.00
2023-05-12T05:39:23.640Z,11.00
2023-05-12T05:41:50.919Z,11.00
2023-05-12T05:44:18.366Z,11.00
2023-05-12T05:46:45.902Z,11.00
2023-05-12T05:49:13.484Z,10.90
2023-05-12T05:51:40.750Z,11.00
2023-05-12T05:54:07.895Z,10.90
2023-05-12T05:57:03.809Z,11.00
2023-05-12T05:59:31.600Z,11.00
2023-05-12T06:01:59.116Z,11.10
2023-05-12T06:04:26.811Z,10.90
2023-05-12T06:06:54.331Z,11.10
2023-05-12T06:09:21.668Z,11.10
2023-05-12T06:11:48.848Z,11.20
2023-05-12T06:14:16.246Z,11.20
2023-05-12T06:16:43.704Z,11.20
2023-05-12T06:19:12.201Z,11.10
2023-05-12T06:21:39.824Z,11.10
2023-05-12T06:24:07.422Z,11.20
2023-05-12T06:26:38.042Z,11.30
2023-05-12T06:29:08.315Z,11.10
2023-05-12T06:31:36.290Z,11.10
2023-05-12T06:34:04.534Z,11.20
2023-05-12T06:36:32.004Z,11.20
2023-05-12T06:39:00.129Z,11.20
2023-05-12T06:41:27.616Z,11.30
2023-05-12T06:43:54.851Z,11.20
2023-05-12T06:46:22.623Z,11.10
2023-05-12T06:48:50.572Z,11.20
2023-05-12T06:51:17.856Z,11.30
2023-05-12T06:53:45.801Z,11.30
2023-05-12T06:56:17.202Z,11.30
2023-05-12T06:58:44.712Z,11.80
2023-05-12T07:01:12.182Z,11.20
2023-05-12T07:03:39.987Z,11.40
2023-05-12T07:06:07.287Z,11.50
2023-05-12T07:08:34.617Z,11.60
2023-05-12T07:11:01.935Z,11.70
2023-05-12T07:13:29.303Z,11.50
2023-05-12T07:15:56.645Z,11.60
2023-05-12T07:18:24.047Z,11.60
2023-05-12T07:20:51.600Z,11.50
2023-05-12T07:23:18.896Z,11.60
2023-05-12T07:25:46.441Z,11.70
2023-05-12T07:28:14.233Z,11.60
2023-05-12T07:30:41.623Z,11.80
2023-05-12T07:33:08.970Z,11.70
2023-05-12T07:35:36.563Z,11.70
2023-05-12T07:38:04.392Z,11.80
2023-05-12T07:40:31.644Z,11.80
2023-05-12T07:43:00.021Z,11.90
2023-05-12T07:45:27.428Z,11.70
2023-05-12T07:47:55.336Z,11.60
2023-05-12T07:50:22.751Z,11.10
2023-05-12T07:52:51.080Z,11.70
2023-05-12T07:55:19.110Z,11.80
2023-05-12T07:57:46.721Z,11.90
2023-05-12T08:00:14.747Z,11.80
2023-05-12T08:02:42.633Z,11.80
2023-05-12T08:05:10.962Z,11.60
2023-05-12T08:07:39.022Z,11.70
2023-05-12T08:10:06.679Z,11.90
2023-05-12T08:12:34.523Z,11.80
2023-05-12T08:15:01.804Z,11.90
2023-05-12T08:17:29.503Z,11.90
2023-05-12T08:19:57.175Z,11.70
2023-05-12T08:22:24.585Z,11.80
2023-05-12T08:24:53.102Z,11.90
2023-05-12T08:27:21.223Z,11.90
2023-05-12T08:29:48.783Z,12.00
2023-05-12T08:32:16.818Z,12.00
2023-05-12T08:34:44.180Z,12.00
2023-05-12T08:37:11.912Z,11.90
2023-05-12T08:39:39.168Z,11.90
2023-05-12T08:42:13.915Z,11.90
2023-05-12T08:44:41.555Z,11.80
2023-05-12T08:47:08.998Z,12.00
2023-05-12T08:49:36.986Z,12.10
2023-05-12T08:52:04.678Z,12.10
2023-05-12T08:54:33.367Z,12.10
2023-05-12T08:59:31.585Z,12.10
2023-05-12T09:01:58.819Z,12.10
2023-05-12T09:04:26.534Z,12.30
2023-05-12T09:06:55.854Z,12.20
2023-05-12T09:09:23.418Z,12.40
2023-05-12T09:11:50.964Z,12.40
2023-05-12T09:14:26.502Z,12.40
2023-05-12T09:17:00.231Z,12.50
2023-05-12T09:19:27.661Z,12.60
2023-05-12T09:21:54.988Z,12.60
2023-05-12T09:24:32.349Z,12.60
2023-05-12T09:26:59.738Z,12.60
2023-05-12T09:29:31.647Z,12.30
2023-05-12T09:32:03.860Z,12.10
2023-05-12T09:34:37.382Z,12.20
2023-05-12T09:37:06.827Z,12.00
2023-05-12T09:39:34.164Z,11.70
2023-05-12T09:42:01.682Z,11.80
2023-05-12T09:44:29.542Z,11.90
2023-05-12T09:46:56.832Z,11.80
2023-05-12T09:49:28.373Z,11.80
2023-05-12T09:51:59.129Z,11.70
2023-05-12T09:54:30.799Z,11.60
2023-05-12T09:57:02.908Z,11.80
2023-05-12T09:59:34.569Z,11.80
2023-05-12T10:02:02.984Z,11.90
2023-05-12T10:04:32.983Z,11.90
2023-05-12T10:07:00.284Z,12.10
2023-05-12T10:09:32.231Z,11.90
2023-05-12T10:11:59.840Z,11.90
2023-05-12T10:14:27.266Z,12.00
2023-05-12T10:16:54.724Z,11.80
2023-05-12T10:19:23.103Z,11.90
2023-05-12T10:21:50.595Z,11.90
2023-05-12T10:24:18.828Z,12.00
2023-05-12T10:26:46.215Z,12.10
2023-05-12T10:29:13.354Z,11.90
2023-05-12T10:31:40.782Z,11.90
2023-05-12T10:34:08.131Z,11.80
2023-05-12T10:36:47.711Z,11.60
2023-05-12T10:39:15.968Z,11.70
2023-05-12T10:41:43.347Z,11.80
2023-05-12T10:44:11.461Z,12.00
2023-05-12T10:46:38.925Z,12.00
2023-05-12T10:49:10.500Z,11.90
2023-05-12T10:51:38.224Z,12.00
2023-05-12T10:54:10.205Z,12.00
2023-05-12T10:56:44.108Z,12.10
2023-05-12T10:59:23.134Z,12.00
2023-05-12T11:02:07.956Z,11.90
2023-05-12T11:04:58.621Z,10.80
2023-05-12T11:07:31.256Z,11.60
2023-05-12T11:10:01.905Z,11.50
2023-05-12T11:12:33.080Z,11.70
2023-05-12T11:15:01.847Z,11.70
2023-05-12T11:17:30.413Z,11.70
2023-05-12T11:19:58.496Z,11.90
2023-05-12T11:22:26.101Z,11.80
2023-05-12T11:24:53.548Z,12.10
2023-05-12T11:27:23.474Z,12.30
2023-05-12T11:30:02.062Z,12.40
2023-05-12T11:32:30.136Z,12.30
2023-05-12T11:35:18.299Z,12.20
2023-05-12T11:37:46.469Z,12.10
2023-05-12T11:40:21.345Z,12.10
2023-05-12T11:42:51.838Z,12.20
2023-05-12T11:45:23.726Z,12.30
2023-05-12T11:47:51.715Z,12.10
2023-05-12T11:50:26.219Z,12.10
2023-05-12T11:52:53.960Z,12.10
2023-05-12T11:55:24.744Z,12.10
2023-05-12T11:58:00.352Z,12.00
2023-05-12T12:00:35.256Z,11.90
2023-05-12T12:03:09.698Z,12.30
2023-05-12T12:05:38.025Z,12.60
2023-05-12T12:08:09.775Z,12.70
2023-05-12T12:10:39.384Z,12.80
2023-05-12T12:13:07.117Z,12.70
2023-05-12T12:15:34.680Z,12.70
2023-05-12T12:18:02.510Z,12.70
2023-05-12T12:20:29.844Z,12.80
2023-05-12T12:22:57.079Z,12.60
2023-05-12T12:25:24.278Z,12.70
2023-05-12T12:27:53.083Z,12.70
2023-05-12T12:30:20.644Z,12.90
2023-05-12T12:32:47.897Z,12.70
2023-05-12T12:35:15.444Z,12.80
2023-05-12T12:37:43.066Z,12.40
2023-05-12T12:40:11.761Z,12.50
2023-05-12T12:42:41.338Z,12.10
2023-05-12T12:45:10.254Z,12.10
2023-05-12T12:47:39.615Z,12.10
2023-05-12T12:50:10.329Z,12.10
2023-05-12T12:52:38.807Z,12.10
2023-05-12T12:55:07.390Z,12.20
2023-05-12T12:57:35.246Z,12.20
2023-05-12T13:00:04.755Z,12.10
2023-05-12T13:02:32.284Z,12.10
2023-05-12T13:05:04.188Z,12.10
2023-05-12T13:07:31.630Z,12.30
2023-05-12T13:09:59.494Z,12.30
2023-05-12T13:12:26.849Z,12.10
2023-05-12T13:14:53.979Z,11.90
2023-05-12T13:17:21.430Z,11.70
2023-05-12T13:19:48.833Z,11.90
2023-05-12T13:22:16.240Z,12.00
2023-05-12T13:24:43.637Z,12.10
2023-05-12T13:27:10.971Z,12.20
2023-05-12T13:29:38.619Z,12.40
2023-05-12T13:32:06.258Z,12.50
2023-05-12T13:34:33.662Z,12.50
2023-05-12T13:37:01.632Z,12.50
2023-05-12T13:39:28.975Z,12.60
2023-05-12T13:41:56.680Z,12.70
2023-05-12T13:44:24.056Z,12.50
2023-05-12T13:46:51.511Z,12.20
2023-05-12T13:49:20.263Z,11.90
2023-05-12T13:51:47.677Z,12.10
2023-05-12T13:54:15.050Z,12.10
2023-05-12T13:56:42.669Z,12.10
2023-05-12T13:59:10.742Z,12.00
2023-05-12T14:01:39.607Z,12.00
2023-05-12T14:04:07.015Z,11.70
2023-05-12T14:06:34.594Z,11.90
2023-05-12T14:09:02.243Z,12.10
2023-05-12T14:11:29.605Z,12.10
2023-05-12T14:13:56.964Z,12.10
2023-05-12T14:16:24.233Z,12.10
2023-05-12T14:18:51.511Z,12.20
2023-05-12T14:21:18.989Z,12.10
2023-05-12T14:23:46.394Z,11.90
2023-05-12T14:26:13.837Z,11.80
2023-05-12T14:28:41.128Z,11.70
2023-05-12T14:31:08.586Z,11.80
2023-05-12T14:33:36.395Z,11.70
2023-05-12T14:36:07.839Z,11.80
2023-05-12T14:38:36.375Z,11.80
2023-05-12T14:41:04.328Z,11.80
2023-05-12T14:43:31.705Z,11.80
2023-05-12T14:45:58.936Z,11.90
2023-05-12T14:48:27.156Z,12.00
2023-05-12T14:50:55.093Z,11.90
2023-05-12T14:53:22.868Z,11.80
2023-05-12T14:55:50.463Z,11.70
2023-05-12T14:58:24.629Z,11.80
2023-05-12T15:00:52.245Z,11.80
2023-05-12T15:03:21.507Z,11.80
2023-05-12T15:08:22.517Z,11.90
2023-05-12T15:10:49.956Z,12.00
2023-05-12T15:13:20.480Z,11.90
2023-05-12T15:15:48.027Z,11.70
2023-05-12T15:18:15.444Z,11.50
2023-05-12T15:20:42.891Z,11.60
2023-05-12T15:23:10.148Z,11.50
2023-05-12T15:25:41.326Z,11.60
2023-05-12T15:28:08.451Z,11.70
2023-05-12T15:30:36.353Z,11.60
2023-05-12T15:33:04.626Z,11.80
2023-05-12T15:35:32.711Z,11.70
2023-05-12T15:38:00.030Z,11.50
2023-05-12T15:40:27.392Z,11.40
2023-05-12T15:42:54.970Z,11.40
2023-05-12T15:45:22.506Z,11.50
2023-05-12T15:48:05.710Z,11.40
2023-05-12T15:50:34.075Z,10.80
2023-05-12T15:53:02.568Z,11.40
2023-05-12T15:55:32.334Z,11.30
2023-05-12T15:58:00.258Z,11.40
2023-05-12T16:00:27.712Z,11.20
2023-05-12T16:02:58.239Z,11.30
2023-05-12T16:05:26.566Z,11.30
2023-05-12T16:07:55.224Z,11.30
2023-05-12T16:10:22.683Z,11.20
2023-05-12T16:12:50.233Z,11.30
2023-05-12T16:15:17.882Z,11.30
2023-05-12T16:17:45.372Z,11.30
2023-05-12T16:20:13.347Z,11.30
2023-05-12T16:22:40.699Z,11.30
2023-05-12T16:25:09.229Z,11.20
2023-05-12T16:27:36.907Z,11.20
2023-05-12T16:30:04.735Z,11.10
2023-05-12T16:32:32.555Z,11.30
2023-05-12T16:35:01.068Z,11.20
2023-05-12T16:37:28.452Z,11.30
2023-05-12T16:39:55.740Z,11.20
2023-05-12T16:42:23.212Z,11.20
2023-05-12T16:44:53.155Z,11.30
2023-05-12T16:47:20.911Z,11.30
2023-05-12T16:49:48.280Z,11.50
2023-05-12T16:52:15.816Z,11.60
2023-05-12T16:54:42.998Z,11.60
2023-05-12T16:57:10.343Z,11.80
2023-05-12T16:59:39.115Z,11.60
2023-05-12T17:02:07.166Z,11.50
2023-05-12T17:04:34.803Z,11.50
2023-05-12T17:07:02.327Z,11.40
2023-05-12T17:09:29.751Z,11.40
2023-05-12T17:11:57.286Z,11.40
2023-05-12T17:14:24.798Z,11.50
2023-05-12T17:16:52.740Z,11.50
2023-05-12T17:19:23.005Z,11.20
2023-05-12T17:21:50.766Z,11.20
2023-05-12T17:24:18.100Z,11.90
2023-05-12T17:26:45.670Z,11.30
2023-05-12T17:29:13.127Z,11.30
2023-05-12T17:31:40.614Z,11.40
2023-05-12T17:34:08.191Z,11.40
2023-05-12T17:36:35.636Z,11.40
2023-05-12T17:39:03.241Z,11.20
2023-05-12T17:41:30.783Z,11.10
2023-05-12T17:43:58.299Z,11.10
2023-05-12T17:46:25.610Z,11.10
2023-05-12T17:48:53.066Z,11.20
2023-05-12T17:51:20.427Z,11.00
2023-05-12T17:53:47.826Z,11.00
2023-05-12T17:56:15.252Z,10.90
2023-05-12T17:58:42.599Z,10.80
2023-05-12T18:01:10.088Z,10.90
2023-05-12T18:03:38.363Z,10.90
2023-05-12T18:06:06.143Z,10.80
2023-05-12T18:08:33.544Z,10.90
2023-05-12T18:11:01.674Z,10.70
2023-05-12T18:13:29.024Z,10.70
2023-05-12T18:15:56.632Z,10.80
2023-05-12T18:18:24.108Z,10.90
2023-05-12T18:20:51.633Z,10.80
2023-05-12T18:23:18.785Z,10.70
2023-05-12T18:25:47.070Z,10.70
2023-05-12T18:28:14.300Z,10.70
2023-05-12T18:30:41.705Z,10.50
2023-05-12T18:33:09.285Z,10.60
2023-05-12T18:35:37.454Z,10.70
2023-05-12T18:38:04.824Z,10.80
2023-05-12T18:40:32.069Z,10.70
2023-05-12T18:42:59.781Z,10.70
2023-05-12T18:45:27.065Z,10.70
2023-05-12T18:47:54.366Z,10.70
2023-05-12T18:50:21.549Z,10.60
2023-05-12T18:52:48.879Z,10.60
2023-05-12T18:55:16.395Z,10.70
2023-05-12T18:57:43.758Z,10.60
2023-05-12T19:00:11.607Z,10.50
2023-05-12T19:02:39.083Z,10.50
2023-05-12T19:05:07.016Z,10.50
2023-05-12T19:07:34.597Z,10.60
2023-05-12T19:10:02.024Z,10.60
2023-05-12T19:12:35.261Z,10.50
2023-05-12T19:15:02.939Z,10.50
2023-05-12T19:17:30.473Z,10.30
2023-05-12T19:19:58.026Z,10.50
2023-05-12T19:22:26.879Z,10.40
2023-05-12T19:24:54.314Z,10.40
2023-05-12T19:27:21.504Z,10.30
2023-05-12T19:29:49.224Z,10.40
2023-05-12T19:32:16.706Z,10.30
2023-05-12T19:34:44.806Z,10.30
2023-05-12T19:37:12.043Z,10.30
2023-05-12T19:39:39.141Z,10.40
2023-05-12T19:42:06.906Z,10.40
2023-05-12T19:44:34.263Z,10.30
2023-05-12T19:47:04.918Z,10.20
2023-05-12T19:49:36.201Z,10.20
2023-05-12T19:52:03.899Z,10.20
2023-05-12T19:54:31.320Z,10.30
2023-05-12T19:56:58.908Z,10.40
2023-05-12T19:59:26.998Z,10.30
2023-05-12T20:01:54.508Z,10.30
2023-05-12T20:04:22.000Z,10.30
2023-05-12T20:06:49.582Z,10.20
2023-05-12T20:09:16.979Z,10.20
2023-05-12T20:11:44.367Z,10.20
2023-05-12T20:14:11.815Z,10.20
2023-05-12T20:16:39.274Z,10.10
2023-05-12T20:19:06.656Z,10.10
2023-05-12T20:21:34.293Z,10.20
2023-05-12T20:24:01.672Z,10.20
2023-05-12T20:26:29.155Z,10.30
2023-05-12T20:28:56.682Z,10.30
2023-05-12T20:31:24.068Z,10.20
2023-05-12T20:33:51.352Z,10.20
2023-05-12T20:36:18.774Z,10.30
2023-05-12T20:41:33.988Z,10.20
2023-05-12T20:44:01.383Z,10.10
2023-05-12T20:46:28.796Z,10.20
2023-05-12T20:48:56.099Z,10.20
2023-05-12T20:51:23.234Z,10.20
2023-05-12T20:53:50.790Z,10.30
2023-05-12T20:56:18.248Z,10.20
2023-05-12T20:58:45.856Z,10.30
2023-05-12T21:01:13.134Z,10.20
2023-05-12T21:03:40.375Z,10.30
2023-05-12T21:06:08.100Z,10.30
2023-05-12T21:08:35.464Z,10.20
2023-05-12T21:11:03.098Z,10.30
2023-05-12T21:13:30.632Z,10.30
2023-05-12T21:15:57.947Z,10.40
2023-05-12T21:18:25.309Z,10.30
2023-05-12T21:20:52.591Z,10.20
2023-05-12T21:23:19.861Z,10.30
2023-05-12T21:25:47.459Z,10.20
2023-05-12T21:28:15.509Z,10.20
2023-05-12T21:30:42.891Z,10.20
2023-05-12T21:33:10.474Z,10.20
2023-05-12T21:35:37.827Z,10.20
2023-05-12T21:38:07.588Z,10.10
2023-05-12T21:40:34.982Z,10.10
2023-05-12T21:43:02.391Z,10.30
2023-05-12T21:45:29.703Z,10.30
2023-05-12T21:47:56.982Z,10.20
2023-05-12T21:50:24.422Z,10.20
2023-05-12T21:52:51.642Z,10.20
2023-05-12T21:55:18.808Z,10.20
2023-05-12T21:57:46.031Z,10.20
2023-05-12T22:00:14.968Z,10.20
2023-05-12T22:02:42.518Z,10.20
2023-05-12T22:05:10.302Z,10.30
2023-05-12T22:07:37.593Z,10.30
2023-05-12T22:10:06.078Z,10.40
2023-05-12T22:12:33.500Z,10.30
2023-05-12T22:15:00.946Z,10.30
2023-05-12T22:17:28.144Z,10.20
2023-05-12T22:19:55.831Z,10.30
2023-05-12T22:22:22.993Z,10.40
2023-05-12T22:24:50.215Z,10.30
2023-05-12T22:27:21.508Z,10.30
2023-05-12T22:29:49.810Z,10.20
2023-05-12T22:32:17.159Z,10.20
2023-05-12T22:34:44.622Z,10.10
2023-05-12T22:37:12.011Z,10.20
2023-05-12T22:39:39.441Z,10.10
2023-05-12T22:42:07.226Z,10.10
2023-05-12T22:44:34.639Z,10.10
2023-05-12T22:47:01.959Z,10.10
2023-05-12T22:49:29.237Z,10.10
2023-05-12T22:51:56.351Z,10.10
2023-05-12T22:54:23.584Z,10.10
2023-05-12T22:56:51.075Z,10.00
2023-05-12T22:59:18.422Z,10.00
2023-05-12T23:01:45.961Z,10.00
2023-05-12T23:04:13.460Z,10.00
2023-05-12T23:06:40.777Z,9.90
2023-05-12T23:09:08.156Z,9.90
2023-05-12T23:11:35.632Z,9.80
2023-05-12T23:14:02.931Z,9.80
2023-05-12T23:16:30.402Z,9.90
2023-05-12T23:18:58.015Z,9.80
2023-05-12T23:21:25.279Z,9.80
2023-05-12T23:23:52.778Z,9.80
2023-05-12T23:26:20.164Z,9.80
2023-05-12T23:28:47.617Z,9.80
2023-05-12T23:31:15.062Z,9.70
2023-05-12T23:33:42.591Z,9.70
2023-05-12T23:36:10.200Z,9.70
2023-05-12T23:38:37.873Z,9.70
2023-05-12T23:41:05.420Z,9.60
2023-05-12T23:43:32.855Z,9.70
2023-05-12T23:46:01.626Z,9.70
2023-05-12T23:48:29.086Z,9.70
2023-05-12T23:50:56.393Z,9.70
2023-05-12T23:53:23.556Z,9.80
2023-05-12T23:55:50.812Z,9.80
2023-05-12T23:58:18.166Z,9.80
